Time;durP1;ratioP1;P1;durP2;ratioP2;P2;SDS_P1;SDS_P2;PMS_P1;PMS_P2;Temp;Humidity;BMP_temperature;BMP_pressure;BME280_temperature;BME280_humidity;BME280_pressure;Samples;Min_cycle;Max_cycle;Signal;HPM_P1;HPM_P2
2023/02/03 00:00:06;;;;;;;23.10;15.10;;;;;;;3.00;75.51;100338.56;1763444;80;21422;-56
2023/02/03 00:03:56;;;;;;;24.95;15.32;;;;;;;3.03;75.53;100341.48;1773052;80;21347;-57
2023/02/03 00:07:21;;;;;;;24.65;15.23;;;;;;;3.05;75.54;100343.58;1713803;83;21464;-57
2023/02/03 00:11:06;;;;;;;21.55;14.68;;;;;;;3.06;75.52;100339.38;1713456;83;21787;-57
2023/02/03 00:14:46;;;;;;;20.95;13.38;;;;;;;3.07;75.45;100333.50;1720281;82;21277;-57
2023/02/03 00:18:26;;;;;;;23.62;14.15;;;;;;;3.04;75.42;100333.76;1708933;83;21211;-57
2023/02/03 00:22:08;;;;;;;23.73;14.60;;;;;;;3.03;75.47;100327.48;1700071;83;21227;-58
2023/02/03 00:25:43;;;;;;;22.62;14.87;;;;;;;3.03;75.47;100323.42;1642731;86;22074;-57
2023/02/03 00:28:59;;;;;;;25.00;16.07;;;;;;;3.05;75.50;100327.35;1676499;82;21203;-56
2023/02/03 00:32:37;;;;;;;26.85;16.62;;;;;;;3.00;75.39;100325.52;1712924;83;21226;-57
2023/02/03 00:39:50;;;;;;;24.57;14.53;;;;;;;2.93;75.47;100334.64;1672142;84;21761;-57
2023/02/03 00:43:16;;;;;;;24.37;14.47;;;;;;;3.03;75.52;100333.38;1858531;76;22194;-55
2023/02/03 00:46:49;;;;;;;25.32;14.58;;;;;;;2.97;75.45;100337.47;1774152;80;21366;-57
2023/02/03 00:50:15;;;;;;;24.92;14.73;;;;;;;3.00;75.45;100331.80;1774109;80;21406;-56
2023/02/03 00:53:32;;;;;;;26.60;15.18;;;;;;;2.99;75.47;100330.58;1772445;79;21339;-57
2023/02/03 00:56:54;;;;;;;23.12;14.73;;;;;;;2.96;75.47;100333.55;1766204;80;21196;-56
2023/02/03 01:00:14;;;;;;;25.55;15.10;;;;;;;2.94;75.33;100332.80;1773028;80;21341;-56
2023/02/03 01:03:52;;;;;;;22.95;13.55;;;;;;;2.92;75.25;100332.94;1771749;80;21395;-57
2023/02/03 01:07:19;;;;;;;22.37;13.15;;;;;;;2.91;75.21;100339.34;1725343;83;21217;-57
2023/02/03 01:15:05;;;;;;;22.98;13.28;;;;;;;2.98;75.49;100334.28;1769799;80;21205;-56
2023/02/03 01:18:32;;;;;;;22.05;13.50;;;;;;;3.03;75.63;100332.02;1772538;80;21733;-57
2023/02/03 01:21:55;;;;;;;20.53;13.57;;;;;;;3.05;75.62;100331.41;1763916;80;21769;-58
2023/02/03 01:25:20;;;;;;;21.73;12.88;;;;;;;3.07;75.60;100330.79;1744028;80;21347;-57
2023/02/03 01:28:34;;;;;;;19.62;12.93;;;;;;;3.06;75.53;100321.81;1772465;80;21221;-56
2023/02/03 01:31:59;;;;;;;20.00;12.65;;;;;;;3.05;75.45;100328.22;1744508;80;21224;-57
2023/02/03 01:35:18;;;;;;;22.48;12.60;;;;;;;3.06;75.50;100323.64;1772112;80;21632;-56
2023/02/03 01:38:41;;;;;;;17.40;12.20;;;;;;;3.03;75.41;100323.91;1771755;79;21844;-57
2023/02/03 01:42:04;;;;;;;18.92;13.25;;;;;;;3.00;75.21;100329.09;1881854;76;22262;-56
2023/02/03 01:45:21;;;;;;;21.60;13.15;;;;;;;2.88;75.14;100323.86;1833134;77;22160;-56
2023/02/03 01:48:49;;;;;;;23.02;14.58;;;;;;;2.76;75.11;100321.69;1805228;79;21236;-56
2023/02/03 01:52:18;;;;;;;23.38;15.23;;;;;;;2.64;75.05;100317.80;1805505;79;21744;-56
2023/02/03 01:55:35;;;;;;;26.42;15.03;;;;;;;2.52;74.95;100318.83;1802545;79;21248;-56
2023/02/03 01:58:48;;;;;;;28.17;17.07;;;;;;;2.40;74.95;100316.64;1805508;79;21153;-56
2023/02/03 02:02:12;;;;;;;29.15;17.80;;;;;;;2.35;75.07;100320.69;1764386;79;21240;-57
2023/02/03 02:05:58;;;;;;;26.07;15.55;;;;;;;2.35;75.18;100322.03;1766471;79;21194;-57
2023/02/03 02:12:28;;;;;;;24.50;13.93;;;;;;;2.40;75.30;100315.28;1784869;79;21173;-56
2023/02/03 02:16:19;;;;;;;28.30;15.50;;;;;;;2.43;75.32;100314.16;1804990;79;21681;-56
2023/02/03 02:24:34;;;;;;;26.33;16.10;;;;;;;2.50;75.43;100309.98;1877764;76;22203;-56
2023/02/03 02:28:16;;;;;;;25.20;15.88;;;;;;;2.41;75.48;100312.94;1805319;79;21244;-57
2023/02/03 02:35:50;;;;;;;26.07;15.13;;;;;;;2.32;75.48;100307.43;1784346;79;21243;-56
2023/02/03 02:39:43;;;;;;;25.50;16.07;;;;;;;2.29;75.51;100315.79;1783214;79;21709;-56
2023/02/03 02:43:24;;;;;;;23.18;14.85;;;;;;;2.30;75.60;100313.47;1726949;82;21210;-56
2023/02/03 02:47:19;;;;;;;24.25;16.07;;;;;;;2.29;75.64;100306.34;1805287;79;21173;-56
2023/02/03 02:50:47;;;;;;;23.35;14.10;;;;;;;2.33;75.64;100320.81;1784572;79;21702;-57
2023/02/03 02:54:09;;;;;;;;;;;;;;;2.38;75.66;100319.11;1806400;79;21188;-56
2023/02/03 02:57:32;;;;;;;19.65;14.15;;;;;;;2.40;75.61;100320.69;1805247;79;20193;-56
2023/02/03 03:04:47;;;;;;;21.17;13.98;;;;;;;2.42;75.41;100319.20;1847451;76;22258;-57
2023/02/03 03:08:07;;;;;;;23.30;15.35;;;;;;;2.36;75.47;100326.47;1774607;80;21173;-56
2023/02/03 03:11:43;;;;;;;21.15;13.75;;;;;;;2.37;75.59;100325.47;1765824;80;21675;-57
2023/02/03 03:15:30;;;;;;;23.10;14.20;;;;;;;2.44;75.75;100335.64;1773465;79;21339;-57
2023/02/03 03:19:27;;;;;;;20.25;13.03;;;;;;;2.50;75.70;100331.59;1773886;79;21204;-56
2023/02/03 03:23:07;;;;;;;20.85;13.05;;;;;;;2.56;75.65;100332.44;1781626;79;21311;-58
2023/02/03 03:26:27;;;;;;;23.75;14.78;;;;;;;2.58;75.56;100333.17;1771331;79;21367;-57
2023/02/03 03:30:06;;;;;;;21.45;13.50;;;;;;;2.59;75.54;100341.16;1771686;79;21358;-56
2023/02/03 03:33:29;;;;;;;23.18;13.70;;;;;;;2.59;75.55;100340.28;1763963;80;21840;-56
2023/02/03 03:37:03;;;;;;;23.00;13.80;;;;;;;2.65;75.72;100351.93;1771357;81;21370;-57
2023/02/03 03:40:46;;;;;;;23.27;14.45;;;;;;;2.68;75.79;100339.03;1772243;79;21709;-56
2023/02/03 03:44:37;;;;;;;23.25;15.00;;;;;;;2.75;75.60;100344.78;1897005;72;23251;-56
2023/02/03 03:48:29;;;;;;;22.70;14.78;;;;;;;2.77;75.58;100353.16;1858680;76;22227;-56
2023/02/03 03:52:07;;;;;;;21.85;13.95;;;;;;;2.73;75.62;100352.16;1743978;80;21166;-56
2023/02/03 03:55:41;;;;;;;24.55;15.95;;;;;;;2.76;75.66;100357.30;1772410;81;21217;-57
2023/02/03 04:02:40;;;;;;;22.13;14.23;;;;;;;2.81;75.80;100374.00;1762640;80;21337;-57
2023/02/03 04:06:04;;;;;;;21.87;14.28;;;;;;;2.84;75.80;100372.39;1769275;80;21185;-57
2023/02/03 04:09:30;;;;;;;26.33;16.97;;;;;;;2.86;75.74;100378.54;1783771;79;21193;-57
2023/02/03 04:12:41;;;;;;;33.60;21.45;;;;;;;2.88;75.70;100379.28;1770139;80;21162;-56
2023/02/03 04:16:02;;;;;;;25.82;15.53;;;;;;;2.86;75.53;100379.89;1771333;80;21264;-57
2023/02/03 04:19:43;;;;;;;28.37;19.17;;;;;;;2.86;75.24;100381.24;1847351;73;28105;-58
2023/02/03 04:26:57;;;;;;;23.40;15.15;;;;;;;2.87;74.90;100374.88;1801446;78;21199;-58
2023/02/03 04:30:30;;;;;;;27.85;16.55;;;;;;;2.90;74.89;100370.56;1857687;76;22296;-59
2023/02/03 04:33:50;;;;;;;24.57;16.32;;;;;;;2.79;74.75;100377.34;1878373;76;22244;-58
2023/02/03 04:37:13;;;;;;;28.45;17.25;;;;;;;2.70;74.82;100390.25;1734129;82;21678;-59
2023/02/03 04:40:36;;;;;;;25.37;16.02;;;;;;;2.65;74.92;100383.00;1800952;79;21193;-59
2023/02/03 04:43:55;;;;;;;25.35;16.12;;;;;;;2.60;74.92;100382.03;1734838;82;21181;-59
2023/02/03 04:47:35;;;;;;;25.62;16.65;;;;;;;2.60;75.06;100387.44;1726876;83;21213;-59
2023/02/03 04:51:02;;;;;;;25.10;16.32;;;;;;;2.62;75.14;100384.61;1734439;82;21411;-58
2023/02/03 04:54:27;;;;;;;30.08;17.02;;;;;;;2.64;75.21;100384.88;1786641;79;21189;-58
2023/02/03 04:57:58;;;;;;;29.18;16.82;;;;;;;2.67;75.30;100379.69;1774745;80;21241;-58
2023/02/03 05:01:14;;;;;;;29.27;17.05;;;;;;;2.67;75.22;100383.27;1729583;82;21268;-58
2023/02/03 05:04:48;;;;;;;28.65;18.17;;;;;;;2.76;75.21;100392.44;1834390;76;22352;-59
2023/02/03 05:08:27;;;;;;;28.55;17.42;;;;;;;2.68;75.18;100387.67;1809705;78;21355;-58
2023/02/03 05:12:08;;;;;;;26.80;17.07;;;;;;;2.71;75.18;100390.63;1821670;77;21430;-59
2023/02/03 05:15:45;;;;;;;26.27;16.67;;;;;;;2.70;75.21;100391.12;1819360;78;21915;-59
2023/02/03 05:19:20;;;;;;;27.45;16.77;;;;;;;2.75;75.38;100392.95;1798772;77;22029;31
2023/02/03 05:22:47;;;;;;;;;;;;;;;2.79;75.44;100397.11;1605726;84;21272;-59
2023/02/03 05:26:13;;;;;;;25.15;17.62;;;;;;;2.87;75.42;100397.84;1826947;76;22301;-59
2023/02/03 05:29:41;;;;;;;27.62;17.85;;;;;;;2.89;75.50;100396.72;1869514;76;22760;-59
2023/02/03 05:33:24;;;;;;;27.77;16.80;;;;;;;2.95;75.61;100402.97;1885788;76;22207;-59
2023/02/03 05:36:53;;;;;;;30.30;19.30;;;;;;;3.00;75.75;100403.45;1858305;76;22715;-58
2023/02/03 06:09:48;;;;;;;25.40;15.70;;;;;;;3.30;76.00;100401.36;1702857;78;21355;31
2023/02/03 06:32:42;;;;;;;25.40;16.60;;;;;;;3.51;75.88;100414.44;1648352;82;21317;-58
2023/02/03 06:43:32;;;;;;;41.13;22.42;;;;;;;3.44;75.31;100414.58;1603900;84;21272;-58
2023/02/03 06:47:27;;;;;;;65.55;30.23;;;;;;;3.39;75.19;100416.84;1585970;86;21295;-58
2023/02/03 06:51:15;;;;;;;38.05;22.60;;;;;;;3.31;75.04;100413.92;1651772;81;21247;-57
2023/02/03 06:54:31;;;;;;;36.42;23.07;;;;;;;3.30;75.21;100413.53;1628662;84;21299;-58
2023/02/03 06:57:58;;;;;;;33.48;20.40;;;;;;;3.35;75.44;100419.42;1608184;85;21804;-58
2023/02/03 07:01:21;;;;;;;31.75;20.68;;;;;;;3.45;75.63;100421.72;1672409;80;22139;-59
2023/02/03 07:08:49;;;;;;;36.50;20.43;;;;;;;3.63;75.64;100423.36;1655098;82;21218;-58
2023/02/03 07:12:12;;;;;;;45.63;28.90;;;;;;;3.68;75.67;100420.61;1654677;83;21400;-58
2023/02/03 07:15:33;;;;;;;37.42;20.92;;;;;;;3.72;75.62;100416.67;1673963;81;21238;-59
2023/02/03 07:19:13;;;;;;;31.65;19.15;;;;;;;3.76;75.46;100419.45;1664404;82;21773;-59
2023/02/03 07:22:45;;;;;;;32.30;19.98;;;;;;;3.78;75.32;100411.20;1660947;83;21204;-59
2023/02/03 07:26:25;;;;;;;30.80;18.75;;;;;;;3.94;75.32;100407.05;1841999;76;22272;-57
2023/02/03 07:30:09;;;;;;;29.27;18.07;;;;;;;3.97;75.37;100409.48;1800804;77;21326;-58
2023/02/03 07:33:47;;;;;;;34.03;20.20;;;;;;;4.08;75.34;100417.53;1632406;87;21298;-58
2023/02/03 07:37:26;;;;;;;31.27;19.52;;;;;;;4.14;75.18;100415.64;1607829;87;21340;-57
2023/02/03 07:40:53;;;;;;;48.13;27.45;;;;;;;4.22;75.23;100417.18;1661712;81;21227;-59
2023/02/03 07:44:10;;;;;;;34.70;20.57;;;;;;;4.25;75.10;100414.20;1661498;85;21244;-59
2023/02/03 07:47:31;;;;;;;35.45;20.80;;;;;;;4.25;74.94;100415.55;1654901;85;21296;-58
2023/02/03 07:51:10;;;;;;;31.80;18.75;;;;;;;4.27;74.86;100417.64;1661545;85;21303;-58
2023/02/03 07:54:51;;;;;;;25.88;16.60;;;;;;;4.26;74.81;100416.42;1673743;85;21570;-58
2023/02/03 08:02:58;;;;;;;26.17;15.93;;;;;;;4.31;74.75;100427.20;1735147;78;21237;-58
2023/02/03 08:20:21;;;;;;;35.80;18.13;;;;;;;4.44;74.65;100426.97;1676872;82;21543;-58
2023/02/03 08:23:48;;;;;;;34.73;17.67;;;;;;;4.46;74.53;100425.86;1654595;83;21307;-58
2023/02/03 08:27:48;;;;;;;31.68;16.73;;;;;;;4.44;74.39;100433.26;1618297;86;21506;-58
2023/02/03 08:30:56;;;;;;;28.38;17.42;;;;;;;4.34;74.25;100429.63;1670295;83;21444;-58
2023/02/03 08:35:04;;;;;;;30.92;17.95;;;;;;;4.24;74.15;100445.00;1654151;85;22097;-59
2023/02/03 08:39:01;;;;;;;31.65;20.43;;;;;;;4.29;74.42;100436.47;1649274;81;21476;-58
2023/02/03 08:42:32;;;;;;;25.70;16.20;;;;;;;4.39;74.66;100433.31;1609101;84;22000;-57
2023/02/03 08:45:53;;;;;;;29.57;18.23;;;;;;;4.48;74.86;100441.49;1642076;81;21298;-59
2023/02/03 09:01:31;;;;;;;26.97;17.10;;;;;;;4.48;74.65;100418.94;1737009;80;21222;-58
2023/02/03 09:04:48;;;;;;;26.42;16.80;;;;;;;4.50;74.61;100410.19;1749303;77;21236;-59
2023/02/03 09:08:29;;;;;;;23.90;15.78;;;;;;;4.46;74.43;100412.30;1682383;81;21208;-59
2023/02/03 09:12:25;;;;;;;28.25;17.77;;;;;;;4.48;74.42;100417.59;1672043;84;21221;-58
2023/02/03 09:15:52;;;;;;;31.15;17.20;;;;;;;4.52;74.47;100414.95;1679961;83;21327;-59
2023/02/03 09:19:43;;;;;;;28.52;16.32;;;;;;;4.52;74.42;100413.11;1648594;84;21230;-58
2023/02/03 09:22:59;;;;;;;29.63;16.32;;;;;;;4.45;74.25;100420.58;1635488;83;21816;-57
2023/02/03 09:26:22;;;;;;;38.05;20.10;;;;;;;4.48;74.34;100417.10;1610776;85;21231;-58
2023/02/03 09:30:00;;;;;;;31.65;19.40;;;;;;;4.40;74.22;100416.05;1602982;85;21337;-59
2023/02/03 09:41:54;;;;;;;24.85;15.45;;;;;;;4.52;74.76;100419.02;1678416;81;21248;-57
2023/02/03 09:45:31;;;;;;;26.00;15.83;;;;;;;4.60;74.82;100417.34;1648639;82;21737;31
2023/02/03 10:00:53;;;;;;;28.75;17.45;;;;;;;4.79;74.62;100408.41;1670929;80;22125;-60
2023/02/03 10:04:32;;;;;;;29.80;16.90;;;;;;;4.74;74.42;100412.03;1639907;80;21287;31
2023/02/03 10:08:37;;;;;;;29.23;17.42;;;;;;;4.78;74.60;100409.42;1675694;82;21274;-60
2023/02/03 10:13:01;;;;;;;27.58;17.90;;;;;;;4.84;74.60;100412.05;1678058;84;21186;-58
2023/02/03 10:16:47;;;;;;;26.33;17.67;;;;;;;4.65;74.01;100407.97;1604201;83;21506;-59
2023/02/03 10:20:27;;;;;;;30.30;21.55;;;;;;;4.36;73.74;100410.04;1624286;86;21725;-58
2023/02/03 10:23:53;;;;;;;32.33;22.62;;;;;;;4.21;73.81;100409.19;1625441;83;21227;-59
2023/02/03 10:27:47;;;;;;;28.42;19.00;;;;;;;4.17;73.83;100411.30;1625137;82;21416;-60
2023/02/03 10:31:08;;;;;;;27.50;18.23;;;;;;;4.11;73.93;100415.91;1647126;86;21275;-60
2023/02/03 10:34:41;;;;;;;32.70;20.85;;;;;;;4.21;74.21;100415.96;1639898;86;22710;-59
2023/02/03 10:38:00;;;;;;;27.58;18.52;;;;;;;4.31;74.40;100416.36;1634724;83;21304;-58
2023/02/03 10:41:14;;;;;;;29.20;19.92;;;;;;;4.35;74.33;100405.63;1649456;85;21266;-60
2023/02/03 10:48:55;;;;;;;38.00;24.40;;;;;;;4.37;74.37;100410.42;1631642;85;22150;-57
2023/02/03 10:55:40;;;;;;;34.38;20.05;;;;;;;4.46;74.48;100399.23;1691191;81;21772;-58
2023/02/03 10:59:06;;;;;;;30.37;20.48;;;;;;;4.44;74.45;100396.67;1732973;81;21262;-60
2023/02/03 11:02:39;;;;;;;27.05;18.50;;;;;;;4.45;74.32;100408.38;1749061;81;21235;-59
2023/02/03 11:06:22;;;;;;;28.05;19.45;;;;;;;4.38;74.09;100406.70;1738953;79;21327;-58
2023/02/03 11:09:49;;;;;;;29.35;18.55;;;;;;;4.34;74.13;100399.83;1765504;80;21267;-59
2023/02/03 11:21:11;;;;;;;33.15;21.15;;;;;;;4.41;74.47;100397.44;1683316;83;21504;-56
2023/02/03 11:24:44;;;;;;;34.63;20.75;;;;;;;4.53;74.48;100399.06;1892831;74;23110;-54
2023/02/03 11:28:07;;;;;;;32.55;21.10;;;;;;;4.49;74.46;100393.55;1858379;76;21266;-54
2023/02/03 11:32:25;;;;;;;32.95;21.27;;;;;;;4.53;74.46;100390.41;1852491;76;21192;-58
2023/02/03 11:36:06;;;;;;;32.53;19.87;;;;;;;4.66;74.50;100390.69;1724464;80;21204;-57
2023/02/03 11:39:42;;;;;;;30.77;20.17;;;;;;;4.70;74.43;100378.56;1717497;81;21250;-56
2023/02/03 11:43:50;;;;;;;32.78;21.80;;;;;;;4.68;74.18;100380.58;1716223;82;21217;-54
2023/02/03 11:47:20;;;;;;;32.53;21.25;;;;;;;4.65;74.18;100380.33;1736862;82;21243;-57
2023/02/03 11:50:54;;;;;;;60.38;31.42;;;;;;;4.66;74.29;100365.80;1725169;82;21404;-55
2023/02/03 11:54:53;;;;;;;31.87;20.37;;;;;;;4.68;74.31;100358.36;1736210;80;21214;-54
2023/02/03 11:58:28;;;;;;;34.45;20.05;;;;;;;4.68;74.18;100358.36;1778504;79;21748;-53
2023/02/03 12:01:58;;;;;;;30.82;20.25;;;;;;;4.69;74.23;100366.88;1701661;80;21232;-56
2023/02/03 12:05:49;;;;;;;30.95;20.52;;;;;;;4.78;74.35;100364.67;1674587;78;21209;-54
2023/02/03 12:09:19;;;;;;;31.62;20.50;;;;;;;4.79;74.14;100365.55;1695791;84;21727;-54
2023/02/03 12:12:52;;;;;;;34.92;21.37;;;;;;;4.70;73.83;100357.73;1670355;85;21321;-57
2023/02/03 12:16:48;;;;;;;34.10;22.22;;;;;;;4.62;73.83;100356.22;1681771;81;21278;-59
2023/02/03 12:20:41;;;;;;;34.35;21.77;;;;;;;4.44;73.53;100351.95;1683543;80;21208;-59
2023/02/03 12:24:27;;;;;;;33.25;21.15;;;;;;;4.36;73.59;100347.72;1621135;86;21269;-54
2023/02/03 12:28:37;;;;;;;33.55;21.60;;;;;;;4.32;73.74;100346.78;1542068;91;21851;-57
2023/02/03 12:32:38;;;;;;;32.85;20.50;;;;;;;4.41;74.05;100343.23;1636607;87;21247;-57
2023/02/03 12:36:26;;;;;;;33.63;21.37;;;;;;;4.45;74.03;100346.91;1636294;86;21866;-58
2023/02/03 12:40:00;;;;;;;32.17;20.27;;;;;;;4.48;74.03;100349.34;1606183;88;22050;-56
2023/02/03 12:44:07;;;;;;;35.48;20.62;;;;;;;4.42;73.88;100356.64;1604065;87;21638;-54
2023/02/03 12:47:52;;;;;;;33.78;21.93;;;;;;;4.39;73.93;100355.56;1624739;87;21282;-53
2023/02/03 12:51:53;;;;;;;34.63;21.97;;;;;;;4.43;74.12;100353.45;1600948;89;21249;-57
2023/02/03 12:55:38;;;;;;;32.63;19.35;;;;;;;4.41;74.06;100349.52;1666578;79;21264;-54
2023/02/03 12:59:41;;;;;;;39.73;24.92;;;;;;;4.33;73.80;100343.93;1847108;75;22223;-55
2023/02/03 13:03:44;;;;;;;37.15;22.65;;;;;;;4.19;73.84;100341.59;1769270;75;22169;-57
2023/02/03 13:07:32;;;;;;;35.43;21.37;;;;;;;4.20;73.99;100343.30;1756136;79;21219;-56
2023/02/03 13:11:08;;;;;;;36.68;22.55;;;;;;;4.21;73.99;100338.27;1740639;80;21505;-58
2023/02/03 13:25:28;;;;;;;34.18;20.72;;;;;;;4.10;74.07;100330.23;1699916;78;21355;-54
2023/02/03 13:38:27;;;;;;;38.80;23.83;;;;;;;4.02;74.37;100333.25;1668155;80;21235;-53
2023/02/03 13:48:56;;;;;;;37.73;22.22;;;;;;;3.87;74.29;100321.08;1879512;76;22199;-55
2023/02/03 13:52:11;;;;;;;38.20;21.50;;;;;;;3.74;74.30;100322.63;1749830;80;21232;-54
2023/02/03 13:55:50;;;;;;;34.65;21.37;;;;;;;3.67;74.42;100322.81;1769983;81;21176;-52
2023/02/03 13:59:40;;;;;;;31.52;19.98;;;;;;;3.75;74.59;100319.44;1871801;74;22430;-55
2023/02/03 14:03:23;;;;;;;34.55;21.45;;;;;;;3.71;74.67;100325.60;1766943;78;21205;-56
2023/02/03 14:07:15;;;;;;;38.95;24.02;;;;;;;3.69;74.61;100318.14;1720349;81;21204;-57
2023/02/03 14:15:30;;;;;;;33.53;21.90;;;;;;;3.49;74.49;100314.93;1735478;81;21366;-56
2023/02/03 14:19:04;;;;;;;36.83;22.58;;;;;;;3.40;74.53;100314.87;1736952;81;21284;-59
2023/02/03 14:22:38;;;;;;;41.02;23.22;;;;;;;3.34;74.64;100314.05;1733298;81;21650;-58
2023/02/03 14:26:05;;;;;;;38.30;22.37;;;;;;;3.27;74.68;100313.71;1737376;81;21227;-56
2023/02/03 14:29:42;;;;;;;37.40;21.80;;;;;;;3.28;74.74;100315.45;1754058;80;21253;-59
2023/02/03 14:33:11;;;;;;;35.87;22.43;;;;;;;3.28;74.74;100314.09;1765733;79;21212;-59
2023/02/03 14:36:45;;;;;;;39.15;22.32;;;;;;;3.22;74.71;100307.84;1766061;81;21405;-57
2023/02/03 14:40:27;;;;;;;44.45;26.40;;;;;;;3.11;74.65;100307.89;1735040;81;21176;-57
2023/02/03 14:44:19;;;;;;;38.35;24.00;;;;;;;2.91;74.66;100310.09;1767811;80;21335;-56
2023/02/03 14:47:55;;;;;;;47.25;26.62;;;;;;;2.75;74.82;100305.12;1633721;86;21209;-57
2023/02/03 14:51:52;;;;;;;40.70;24.95;;;;;;;2.70;75.00;100303.77;1843596;78;22222;-57
2023/02/03 14:55:29;;;;;;;42.73;25.02;;;;;;;2.60;75.07;100301.49;1815629;79;21299;-57
2023/02/03 14:59:02;;;;;;;36.50;23.23;;;;;;;2.52;75.13;100305.32;1729639;82;21753;-59
2023/02/03 15:02:17;;;;;;;33.67;20.55;;;;;;;2.46;75.21;100315.26;1657459;81;21566;-58
2023/02/03 15:05:42;;;;;;;36.17;21.48;;;;;;;2.39;75.26;100314.06;1736430;80;21741;-57
2023/02/03 15:09:04;;;;;;;37.48;23.00;;;;;;;2.33;75.34;100314.05;1724112;81;21585;-57
2023/02/03 15:12:55;;;;;;;41.13;23.87;;;;;;;2.31;75.48;100308.42;1701536;82;21342;-57
2023/02/03 15:16:35;;;;;;;44.85;26.50;;;;;;;2.34;75.61;100310.88;1728276;82;21605;-57
2023/02/03 15:20:06;;;;;;;41.98;24.35;;;;;;;2.39;75.68;100310.88;1718773;83;21410;-56
2023/02/03 15:23:47;;;;;;;41.53;25.52;;;;;;;2.62;75.93;100300.84;1876982;76;22173;-58
2023/02/03 15:27:29;;;;;;;46.63;30.55;;;;;;;2.76;76.07;100308.17;1861122;76;22778;-58
2023/02/03 15:30:50;;;;;;;45.33;28.77;;;;;;;2.77;76.07;100311.75;1793602;78;21183;-56
2023/02/03 15:34:56;;;;;;;41.68;26.90;;;;;;;2.86;75.98;100309.61;1809784;77;22352;-60
2023/02/03 15:42:00;;;;;;;52.98;34.70;;;;;;;3.06;75.88;100312.83;1825819;76;28353;-57
2023/02/03 15:45:29;;;;;;;44.35;27.82;;;;;;;3.12;75.72;100310.12;1728853;81;21837;-57
2023/02/03 15:49:10;;;;;;;40.23;24.80;;;;;;;3.11;75.46;100308.41;1706627;82;21209;-57
2023/02/03 15:52:33;;;;;;;46.45;26.52;;;;;;;3.04;75.26;100306.72;1752066;81;21355;-57
2023/02/03 15:55:53;;;;;;;47.03;26.65;;;;;;;2.95;75.04;100304.77;1734899;81;22222;-57
2023/02/03 15:59:39;;;;;;;69.97;40.90;;;;;;;2.87;75.04;100304.08;1750682;80;21714;-57
2023/02/03 16:03:22;;;;;;;46.25;26.93;;;;;;;2.84;75.13;100308.88;1765824;80;21264;-58
2023/02/03 16:06:43;;;;;;;43.55;25.90;;;;;;;2.88;75.29;100309.00;1702685;81;21253;-58
2023/02/03 16:10:29;;;;;;;41.05;24.45;;;;;;;2.85;75.18;100311.45;1768461;81;22072;-57
2023/02/03 16:13:56;;;;;;;45.78;25.48;;;;;;;2.81;75.15;100317.24;1757629;80;21386;-56
2023/02/03 16:17:16;;;;;;;44.30;26.15;;;;;;;2.76;75.10;100320.34;1769683;80;21209;-57
2023/02/03 16:53:27;;;;;;;42.95;24.60;;;;;;;2.23;75.40;100309.06;1800993;78;21536;-58
2023/02/03 16:56:52;;;;;;;44.40;24.10;;;;;;;2.23;75.45;100307.72;1796360;78;21244;-57
2023/02/03 17:00:42;;;;;;;45.43;25.12;;;;;;;2.21;75.48;100311.02;1799970;78;21362;-57
2023/02/03 17:04:05;;;;;;;39.35;23.18;;;;;;;2.20;75.54;100304.39;1811531;79;21207;-58
2023/02/03 17:07:29;;;;;;;37.90;23.75;;;;;;;2.20;75.56;100300.34;1783859;79;21200;-57
2023/02/03 17:11:25;;;;;;;38.63;22.50;;;;;;;2.23;75.66;100293.34;1805271;79;21239;-56
2023/02/03 17:14:47;;;;;;;39.13;23.27;;;;;;;2.20;75.56;100290.41;1811710;78;21425;-58
2023/02/03 17:18:27;;;;;;;44.30;25.50;;;;;;;2.19;75.63;100291.89;1798775;79;21361;-59
2023/02/03 17:21:53;;;;;;;37.90;24.07;;;;;;;2.22;75.74;100287.59;1634119;86;21355;-58
2023/02/03 17:25:17;;;;;;;43.98;25.25;;;;;;;2.30;75.77;100289.17;1663778;84;21253;-57
2023/02/03 17:28:42;;;;;;;35.90;22.20;;;;;;;2.34;75.84;100294.67;1696759;83;21398;-59
2023/02/03 17:32:34;;;;;;;37.45;23.20;;;;;;;2.34;75.81;100295.54;1682899;84;21596;-58
2023/02/03 17:36:28;;;;;;;36.45;23.42;;;;;;;2.45;75.87;100286.53;1894820;72;22251;-58
2023/02/03 17:40:06;;;;;;;43.78;25.08;;;;;;;2.43;75.84;100281.75;1799186;75;21206;-56
2023/02/03 17:43:46;;;;;;;42.15;25.12;;;;;;;2.45;75.84;100278.44;1784434;76;21762;-59
2023/02/03 17:47:15;;;;;;;38.08;22.05;;;;;;;2.48;75.81;100273.64;1741720;78;21237;-59
2023/02/03 17:50:56;;;;;;;41.68;23.40;;;;;;;2.48;75.74;100274.13;1742802;79;21441;-56
2023/02/03 17:54:58;;;;;;;33.30;20.92;;;;;;;2.48;75.83;100272.30;1734921;80;21192;-56
2023/02/03 17:58:20;;;;;;;36.23;21.62;;;;;;;2.57;75.71;100272.03;1876625;76;22588;-57
2023/02/03 18:01:27;;;;;;;35.38;21.52;;;;;;;2.45;75.58;100267.15;1803432;79;21648;-57
2023/02/03 18:05:11;;;;;;;39.60;22.85;;;;;;;2.37;75.57;100269.62;1798772;79;21373;-57
2023/02/03 18:08:49;;;;;;;42.33;25.43;;;;;;;2.39;75.80;100266.80;1710425;83;21327;-59
2023/02/03 18:12:05;;;;;;;38.60;22.32;;;;;;;2.41;75.82;100263.48;1769018;80;21252;-57
2023/02/03 18:15:18;;;;;;;36.73;21.75;;;;;;;2.48;75.93;100263.32;1705426;84;21280;-56
2023/02/03 18:18:52;;;;;;;38.58;22.52;;;;;;;2.50;75.89;100265.41;1771693;80;21260;-58
2023/02/03 18:22:20;;;;;;;39.27;22.73;;;;;;;2.42;75.58;100258.44;1772925;80;21247;-57
2023/02/03 18:25:41;;;;;;;35.60;20.70;;;;;;;2.32;75.59;100253.42;1709064;82;21366;-57
2023/02/03 18:29:14;;;;;;;45.28;26.17;;;;;;;2.27;75.62;100258.34;1754615;81;21330;-56
2023/02/03 18:33:00;;;;;;;47.85;26.85;;;;;;;2.23;75.68;100259.59;1764061;81;21192;-57
2023/02/03 18:36:15;;;;;;;52.75;25.70;;;;;;;2.20;75.72;100259.84;1770986;81;21216;-57
2023/02/03 18:40:13;;;;;;;47.98;24.20;;;;;;;2.15;75.80;100258.02;1784891;79;21221;-56
2023/02/03 18:43:34;;;;;;;47.55;24.85;;;;;;;2.14;75.89;100252.26;1743890;82;21366;-56
2023/02/03 18:46:49;;;;;;;50.35;27.13;;;;;;;2.15;75.93;100243.16;1714800;83;21231;-58
2023/02/03 18:50:12;;;;;;;47.13;27.07;;;;;;;2.16;75.98;100243.52;1714455;83;21235;-59
2023/02/03 18:53:47;;;;;;;44.25;26.30;;;;;;;2.17;76.03;100242.55;1702381;83;21247;-59
2023/02/03 18:57:24;;;;;;;42.48;25.77;;;;;;;2.21;76.04;100242.64;1686609;85;21159;-57
2023/02/03 19:00:34;;;;;;;41.42;23.83;;;;;;;2.18;76.02;100241.08;1715315;83;21688;-56
2023/02/03 19:03:44;;;;;;;36.95;22.85;;;;;;;2.14;75.99;100240.11;1678438;83;21393;-58
2023/02/03 19:07:18;;;;;;;38.80;23.47;;;;;;;2.10;75.97;100242.20;1633361;87;21169;-56
2023/02/03 19:10:54;;;;;;;33.38;21.80;;;;;;;2.07;76.00;100234.83;1683211;85;21228;-56
2023/02/03 19:14:46;;;;;;;35.75;22.45;;;;;;;2.03;76.01;100230.69;1677943;85;21249;-58
2023/02/03 19:18:11;;;;;;;35.38;21.48;;;;;;;2.04;76.04;100235.09;1683591;85;21224;-58
2023/02/03 19:21:45;;;;;;;34.35;22.17;;;;;;;1.99;76.00;100238.65;1683953;85;21397;-58
2023/02/03 19:25:21;;;;;;;35.30;20.97;;;;;;;1.95;76.07;100242.59;1673075;85;21238;-59
2023/02/03 19:28:39;;;;;;;34.80;22.02;;;;;;;1.99;76.29;100234.12;1668635;85;21231;-59
2023/02/03 19:32:17;;;;;;;36.77;23.92;;;;;;;2.11;76.49;100234.96;1686652;85;21735;-59
2023/02/03 19:35:57;;;;;;;36.33;22.93;;;;;;;2.18;76.45;100230.27;1665901;85;21437;-56
2023/02/03 19:39:40;;;;;;;31.35;20.62;;;;;;;2.20;76.41;100230.14;1684614;85;21279;-56
2023/02/03 19:53:43;;;;;;;28.47;18.25;;;;;;;2.66;76.92;100217.20;1858288;76;22228;-57
2023/02/03 19:57:03;;;;;;;29.98;19.45;;;;;;;2.64;76.86;100217.34;1707668;82;21725;-59
2023/02/03 20:00:20;;;;;;;25.65;17.37;;;;;;;2.70;76.53;100218.65;1860933;76;22276;-59
2023/02/03 20:03:42;;;;;;;31.68;21.15;;;;;;;2.61;76.39;100212.20;1819425;79;21848;-59
2023/02/03 20:07:10;;;;;;;25.80;18.23;;;;;;;2.60;76.25;100210.47;1805866;79;21740;-56
2023/02/03 20:10:54;;;;;;;26.07;18.25;;;;;;;2.61;76.18;100207.28;1767230;81;22102;-56
2023/02/03 20:14:21;;;;;;;24.60;17.32;;;;;;;2.64;76.26;100205.66;1747913;80;21363;-59
2023/02/03 20:17:42;;;;;;;27.95;18.05;;;;;;;2.66;76.22;100194.24;1744644;82;21233;-59